This is the latest recevied weather packets stored in our database for station/object SM6KNE. If no packets are shown the sender has not sent any weather packets the latest 10 day(s).
| Time | Temp. | Humidity | Pressure | Rain* | Wind** | Luminosity | Snow |
|---|---|---|---|---|---|---|---|
| 1777940744 | 8.33° C | 81% | 1009.1 hPa | - | - | - | - |
| 1777938924 | 8.33° C | 81% | 1009.1 hPa | - | - | - | - |
| 1777937724 | 8.33° C | 80% | 1009.1 hPa | - | - | - | - |
| 1777934717 | 8.33° C | 80% | 1009.1 hPa | - | - | - | - |
| 1777931119 | 8.33° C | 80% | 1009.1 hPa | - | - | - | - |
| 1777929924 | 8.33° C | 80% | 1009.1 hPa | - | - | - | - |
| 1777929339 | 8.33° C | 79% | 1009.1 hPa | - | - | - | - |
| 1777926324 | 8.89° C | 78% | 1009.1 hPa | - | - | - | - |
| 1777923923 | 8.89° C | 75% | 1009.1 hPa | - | - | - | - |
| 1777922124 | 8.89° C | 74% | 1009.1 hPa | - | - | - | - |
| 1777914924 | 13.33° C | 48% | 1009.1 hPa | - | - | - | - |
| 1777911924 | 16.11° C | 36% | 1009.1 hPa | - | - | - | - |
| 1777908924 | 17.78° C | 35% | 1009.1 hPa | - | - | - | - |
| 1777908345 | 18.33° C | 35% | 1009.1 hPa | - | - | - | - |
| 1777905324 | 18.89° C | 35% | 1009.1 hPa | - | - | - | - |
| 1777902923 | 20° C | 41% | 1008.1 hPa | - | - | - | - |
| 1777899340 | 20° C | 45% | 1008.1 hPa | - | - | - | - |
| 1777896324 | 20.56° C | 46% | 1007.1 hPa | - | - | - | - |
| 1777893319 | 18.33° C | 52% | 1007.1 hPa | - | - | - | - |
| 1777890944 | 16.67° C | 61% | 1007.1 hPa | - | - | - | - |
| 1777890317 | 16.11° C | 64% | 1007.1 hPa | - | - | - | - |
| 1777889123 | 15° C | 67% | 1007.1 hPa | - | - | - | - |
| 1777883123 | 11.67° C | 73% | 1006 hPa | - | - | - | - |
| 1777876544 | 10° C | 84% | 1006 hPa | - | - | - | - |
| 1777866927 | 8.89° C | 90% | 1006 hPa | - | - | - | - |
* Rain since midnight (hover to see other rain measurements)
** Current wind speed in m/s (hover to see current wind gust speed)